sensor_id;sensor_type;location;lat;lon;timestamp;P1;durP1;ratioP1;P2;durP2;ratioP2
15258;SDS011;34462;51.368;12.364;2023-06-22T00:01:25;11.75;;;10.65;;
15258;SDS011;34462;51.368;12.364;2023-06-22T00:03:53;11.73;;;10.52;;
15258;SDS011;34462;51.368;12.364;2023-06-22T00:06:23;12.25;;;11.05;;
15258;SDS011;34462;51.368;12.364;2023-06-22T00:08:52;11.60;;;10.38;;
15258;SDS011;34462;51.368;12.364;2023-06-22T00:11:20;11.88;;;10.77;;
15258;SDS011;34462;51.368;12.364;2023-06-22T00:13:49;11.13;;;10.13;;
15258;SDS011;34462;51.368;12.364;2023-06-22T00:16:18;11.40;;;10.40;;
15258;SDS011;34462;51.368;12.364;2023-06-22T00:18:46;11.30;;;10.10;;
15258;SDS011;34462;51.368;12.364;2023-06-22T00:21:15;11.52;;;10.43;;
15258;SDS011;34462;51.368;12.364;2023-06-22T00:23:46;11.40;;;10.35;;
15258;SDS011;34462;51.368;12.364;2023-06-22T00:26:15;11.55;;;10.35;;
15258;SDS011;34462;51.368;12.364;2023-06-22T00:28:44;10.88;;;9.75;;
15258;SDS011;34462;51.368;12.364;2023-06-22T00:31:12;11.25;;;10.25;;
15258;SDS011;34462;51.368;12.364;2023-06-22T00:33:41;11.38;;;10.18;;
15258;SDS011;34462;51.368;12.364;2023-06-22T00:36:10;11.13;;;10.18;;
15258;SDS011;34462;51.368;12.364;2023-06-22T00:38:42;11.10;;;10.00;;
15258;SDS011;34462;51.368;12.364;2023-06-22T00:41:12;10.68;;;9.60;;
15258;SDS011;34462;51.368;12.364;2023-06-22T00:43:40;12.13;;;10.13;;
15258;SDS011;34462;51.368;12.364;2023-06-22T00:46:09;11.07;;;10.07;;
15258;SDS011;34462;51.368;12.364;2023-06-22T00:48:38;11.50;;;10.30;;
15258;SDS011;34462;51.368;12.364;2023-06-22T00:51:08;11.43;;;10.32;;
15258;SDS011;34462;51.368;12.364;2023-06-22T00:53:36;12.18;;;11.07;;
15258;SDS011;34462;51.368;12.364;2023-06-22T00:56:05;11.40;;;10.38;;
15258;SDS011;34462;51.368;12.364;2023-06-22T00:58:36;11.60;;;10.50;;
15258;SDS011;34462;51.368;12.364;2023-06-22T01:01:07;11.65;;;10.60;;
15258;SDS011;34462;51.368;12.364;2023-06-22T01:03:36;11.80;;;10.68;;
15258;SDS011;34462;51.368;12.364;2023-06-22T01:06:07;11.38;;;10.38;;
15258;SDS011;34462;51.368;12.364;2023-06-22T01:08:42;12.10;;;10.98;;
15258;SDS011;34462;51.368;12.364;2023-06-22T01:11:16;11.77;;;10.77;;
15258;SDS011;34462;51.368;12.364;2023-06-22T01:13:53;11.05;;;10.05;;
15258;SDS011;34462;51.368;12.364;2023-06-22T01:16:30;11.98;;;10.77;;
15258;SDS011;34462;51.368;12.364;2023-06-22T01:19:04;11.77;;;10.68;;
15258;SDS011;34462;51.368;12.364;2023-06-22T01:21:42;12.57;;;11.38;;
15258;SDS011;34462;51.368;12.364;2023-06-22T01:24:15;11.90;;;10.80;;
15258;SDS011;34462;51.368;12.364;2023-06-22T01:26:53;12.30;;;11.20;;
15258;SDS011;34462;51.368;12.364;2023-06-22T01:29:29;12.38;;;11.18;;
15258;SDS011;34462;51.368;12.364;2023-06-22T01:32:00;11.65;;;10.55;;
15258;SDS011;34462;51.368;12.364;2023-06-22T01:34:34;10.77;;;9.77;;
15258;SDS011;34462;51.368;12.364;2023-06-22T01:37:06;11.48;;;10.48;;
15258;SDS011;34462;51.368;12.364;2023-06-22T01:39:35;12.63;;;11.52;;
15258;SDS011;34462;51.368;12.364;2023-06-22T01:42:04;11.60;;;10.60;;
15258;SDS011;34462;51.368;12.364;2023-06-22T01:44:34;11.82;;;10.50;;
15258;SDS011;34462;51.368;12.364;2023-06-22T01:47:04;12.35;;;11.25;;
15258;SDS011;34462;51.368;12.364;2023-06-22T01:49:34;12.10;;;10.90;;
15258;SDS011;34462;51.368;12.364;2023-06-22T01:52:03;13.32;;;12.02;;
15258;SDS011;34462;51.368;12.364;2023-06-22T01:54:32;12.00;;;10.80;;
15258;SDS011;34462;51.368;12.364;2023-06-22T01:57:01;12.45;;;11.27;;
15258;SDS011;34462;51.368;12.364;2023-06-22T01:59:32;12.27;;;11.18;;
15258;SDS011;34462;51.368;12.364;2023-06-22T02:02:08;12.30;;;11.05;;
15258;SDS011;34462;51.368;12.364;2023-06-22T02:04:41;11.70;;;10.70;;
15258;SDS011;34462;51.368;12.364;2023-06-22T02:07:14;14.15;;;12.90;;
15258;SDS011;34462;51.368;12.364;2023-06-22T02:09:46;14.38;;;13.07;;
15258;SDS011;34462;51.368;12.364;2023-06-22T02:12:23;15.38;;;13.88;;
15258;SDS011;34462;51.368;12.364;2023-06-22T02:14:56;14.77;;;13.38;;
15258;SDS011;34462;51.368;12.364;2023-06-22T02:17:27;13.30;;;12.00;;
15258;SDS011;34462;51.368;12.364;2023-06-22T02:20:00;16.08;;;14.50;;
15258;SDS011;34462;51.368;12.364;2023-06-22T02:22:34;16.08;;;14.48;;
15258;SDS011;34462;51.368;12.364;2023-06-22T02:25:03;14.95;;;13.57;;
15258;SDS011;34462;51.368;12.364;2023-06-22T02:27:32;14.05;;;12.75;;
15258;SDS011;34462;51.368;12.364;2023-06-22T02:30:02;14.98;;;13.48;;
15258;SDS011;34462;51.368;12.364;2023-06-22T02:32:31;13.82;;;12.63;;
15258;SDS011;34462;51.368;12.364;2023-06-22T02:35:00;14.60;;;13.15;;
15258;SDS011;34462;51.368;12.364;2023-06-22T02:37:31;15.23;;;13.82;;
15258;SDS011;34462;51.368;12.364;2023-06-22T02:39:59;13.93;;;12.57;;
15258;SDS011;34462;51.368;12.364;2023-06-22T02:42:30;13.98;;;12.68;;
15258;SDS011;34462;51.368;12.364;2023-06-22T02:44:58;13.88;;;12.55;;
15258;SDS011;34462;51.368;12.364;2023-06-22T02:47:29;14.80;;;13.40;;
15258;SDS011;34462;51.368;12.364;2023-06-22T02:49:57;13.45;;;12.25;;
15258;SDS011;34462;51.368;12.364;2023-06-22T02:52:26;14.25;;;12.88;;
15258;SDS011;34462;51.368;12.364;2023-06-22T02:54:55;13.75;;;12.55;;
15258;SDS011;34462;51.368;12.364;2023-06-22T02:57:23;14.57;;;13.25;;
15258;SDS011;34462;51.368;12.364;2023-06-22T02:59:52;15.35;;;13.95;;
15258;SDS011;34462;51.368;12.364;2023-06-22T03:02:21;14.40;;;13.07;;
15258;SDS011;34462;51.368;12.364;2023-06-22T03:04:51;14.80;;;13.32;;
15258;SDS011;34462;51.368;12.364;2023-06-22T03:07:20;14.18;;;12.68;;
15258;SDS011;34462;51.368;12.364;2023-06-22T03:09:48;14.48;;;12.98;;
15258;SDS011;34462;51.368;12.364;2023-06-22T03:12:17;14.38;;;13.07;;
15258;SDS011;34462;51.368;12.364;2023-06-22T03:14:45;13.45;;;12.10;;
15258;SDS011;34462;51.368;12.364;2023-06-22T03:17:14;13.85;;;12.65;;
15258;SDS011;34462;51.368;12.364;2023-06-22T03:19:42;14.55;;;13.15;;
15258;SDS011;34462;51.368;12.364;2023-06-22T03:22:12;14.85;;;13.40;;
15258;SDS011;34462;51.368;12.364;2023-06-22T03:24:41;14.50;;;13.20;;
15258;SDS011;34462;51.368;12.364;2023-06-22T03:27:09;15.05;;;13.65;;
15258;SDS011;34462;51.368;12.364;2023-06-22T03:29:38;13.38;;;12.07;;
15258;SDS011;34462;51.368;12.364;2023-06-22T03:32:06;14.32;;;12.98;;
15258;SDS011;34462;51.368;12.364;2023-06-22T03:34:35;14.30;;;12.95;;
15258;SDS011;34462;51.368;12.364;2023-06-22T03:37:04;14.55;;;13.18;;
15258;SDS011;34462;51.368;12.364;2023-06-22T03:39:33;14.07;;;12.88;;
15258;SDS011;34462;51.368;12.364;2023-06-22T03:42:02;13.85;;;12.55;;
15258;SDS011;34462;51.368;12.364;2023-06-22T03:44:31;14.57;;;13.18;;
15258;SDS011;34462;51.368;12.364;2023-06-22T03:46:59;13.70;;;12.45;;
15258;SDS011;34462;51.368;12.364;2023-06-22T03:49:28;15.43;;;13.93;;
15258;SDS011;34462;51.368;12.364;2023-06-22T03:51:57;15.43;;;13.93;;
15258;SDS011;34462;51.368;12.364;2023-06-22T03:54:25;15.70;;;14.15;;
15258;SDS011;34462;51.368;12.364;2023-06-22T03:56:55;15.00;;;13.60;;
15258;SDS011;34462;51.368;12.364;2023-06-22T03:59:24;15.48;;;13.98;;
15258;SDS011;34462;51.368;12.364;2023-06-22T04:01:53;15.10;;;13.68;;
15258;SDS011;34462;51.368;12.364;2023-06-22T04:04:21;15.70;;;14.30;;
15258;SDS011;34462;51.368;12.364;2023-06-22T04:06:50;14.73;;;13.20;;
15258;SDS011;34462;51.368;12.364;2023-06-22T04:09:19;16.08;;;14.40;;
15258;SDS011;34462;51.368;12.364;2023-06-22T04:11:48;14.68;;;13.38;;
15258;SDS011;34462;51.368;12.364;2023-06-22T04:14:17;12.80;;;11.60;;
15258;SDS011;34462;51.368;12.364;2023-06-22T04:16:46;14.50;;;13.13;;
15258;SDS011;34462;51.368;12.364;2023-06-22T04:19:14;12.93;;;11.82;;
15258;SDS011;34462;51.368;12.364;2023-06-22T04:21:44;15.15;;;13.85;;
15258;SDS011;34462;51.368;12.364;2023-06-22T04:24:14;14.50;;;13.20;;
15258;SDS011;34462;51.368;12.364;2023-06-22T04:26:43;14.15;;;12.95;;
15258;SDS011;34462;51.368;12.364;2023-06-22T04:29:13;13.70;;;12.45;;
15258;SDS011;34462;51.368;12.364;2023-06-22T04:31:43;11.93;;;10.82;;
15258;SDS011;34462;51.368;12.364;2023-06-22T04:34:17;16.95;;;14.77;;
15258;SDS011;34462;51.368;12.364;2023-06-22T04:36:45;13.88;;;12.52;;
15258;SDS011;34462;51.368;12.364;2023-06-22T04:39:14;15.00;;;13.63;;
15258;SDS011;34462;51.368;12.364;2023-06-22T04:41:43;14.48;;;13.07;;
15258;SDS011;34462;51.368;12.364;2023-06-22T04:44:12;16.42;;;14.73;;
15258;SDS011;34462;51.368;12.364;2023-06-22T04:46:52;14.63;;;13.15;;
15258;SDS011;34462;51.368;12.364;2023-06-22T04:49:26;13.18;;;11.88;;
15258;SDS011;34462;51.368;12.364;2023-06-22T04:51:59;14.77;;;13.48;;
15258;SDS011;34462;51.368;12.364;2023-06-22T04:54:29;14.38;;;13.07;;
15258;SDS011;34462;51.368;12.364;2023-06-22T04:56:59;12.45;;;11.35;;
15258;SDS011;34462;51.368;12.364;2023-06-22T04:59:28;14.30;;;13.05;;
15258;SDS011;34462;51.368;12.364;2023-06-22T05:02:00;14.90;;;13.48;;
15258;SDS011;34462;51.368;12.364;2023-06-22T05:04:29;15.73;;;14.07;;
15258;SDS011;34462;51.368;12.364;2023-06-22T05:06:59;14.90;;;13.45;;
15258;SDS011;34462;51.368;12.364;2023-06-22T05:09:28;15.10;;;13.60;;
15258;SDS011;34462;51.368;12.364;2023-06-22T05:11:57;13.63;;;12.32;;
15258;SDS011;34462;51.368;12.364;2023-06-22T05:14:26;14.30;;;12.90;;
15258;SDS011;34462;51.368;12.364;2023-06-22T05:16:54;16.02;;;14.38;;
15258;SDS011;34462;51.368;12.364;2023-06-22T05:19:26;14.05;;;12.60;;
15258;SDS011;34462;51.368;12.364;2023-06-22T05:21:59;15.05;;;13.55;;
15258;SDS011;34462;51.368;12.364;2023-06-22T05:24:28;15.85;;;14.32;;
15258;SDS011;34462;51.368;12.364;2023-06-22T05:26:57;13.52;;;12.32;;
15258;SDS011;34462;51.368;12.364;2023-06-22T05:29:25;14.85;;;13.15;;
15258;SDS011;34462;51.368;12.364;2023-06-22T05:31:54;14.18;;;12.93;;
15258;SDS011;34462;51.368;12.364;2023-06-22T05:34:22;16.33;;;13.80;;
15258;SDS011;34462;51.368;12.364;2023-06-22T05:36:52;14.20;;;12.82;;
15258;SDS011;34462;51.368;12.364;2023-06-22T05:39:20;15.38;;;13.45;;
15258;SDS011;34462;51.368;12.364;2023-06-22T05:41:49;13.90;;;12.60;;
15258;SDS011;34462;51.368;12.364;2023-06-22T05:44:17;15.32;;;13.77;;
15258;SDS011;34462;51.368;12.364;2023-06-22T05:46:46;15.55;;;13.75;;
15258;SDS011;34462;51.368;12.364;2023-06-22T05:49:15;15.88;;;14.25;;
15258;SDS011;34462;51.368;12.364;2023-06-22T05:51:43;17.73;;;15.00;;
15258;SDS011;34462;51.368;12.364;2023-06-22T05:54:13;15.05;;;13.52;;
15258;SDS011;34462;51.368;12.364;2023-06-22T05:56:44;14.27;;;12.88;;
15258;SDS011;34462;51.368;12.364;2023-06-22T05:59:12;14.05;;;12.82;;
15258;SDS011;34462;51.368;12.364;2023-06-22T06:01:41;16.55;;;14.90;;
15258;SDS011;34462;51.368;12.364;2023-06-22T06:04:09;14.32;;;12.93;;
15258;SDS011;34462;51.368;12.364;2023-06-22T06:06:38;14.68;;;12.68;;
15258;SDS011;34462;51.368;12.364;2023-06-22T06:09:07;15.02;;;13.52;;
15258;SDS011;34462;51.368;12.364;2023-06-22T06:11:36;15.82;;;12.85;;
15258;SDS011;34462;51.368;12.364;2023-06-22T06:14:05;16.42;;;12.80;;
15258;SDS011;34462;51.368;12.364;2023-06-22T06:16:33;13.10;;;11.90;;
15258;SDS011;34462;51.368;12.364;2023-06-22T06:19:02;13.60;;;11.77;;
15258;SDS011;34462;51.368;12.364;2023-06-22T06:21:31;13.32;;;11.88;;
15258;SDS011;34462;51.368;12.364;2023-06-22T06:23:59;12.50;;;11.40;;
15258;SDS011;34462;51.368;12.364;2023-06-22T06:26:28;11.70;;;10.60;;
15258;SDS011;34462;51.368;12.364;2023-06-22T06:29:00;11.10;;;10.05;;
15258;SDS011;34462;51.368;12.364;2023-06-22T06:31:29;11.45;;;10.38;;
15258;SDS011;34462;51.368;12.364;2023-06-22T06:33:58;11.95;;;10.77;;
15258;SDS011;34462;51.368;12.364;2023-06-22T06:36:26;12.45;;;11.23;;
15258;SDS011;34462;51.368;12.364;2023-06-22T06:38:55;12.07;;;10.88;;
15258;SDS011;34462;51.368;12.364;2023-06-22T06:41:23;11.60;;;10.52;;
15258;SDS011;34462;51.368;12.364;2023-06-22T06:43:52;11.32;;;9.63;;
15258;SDS011;34462;51.368;12.364;2023-06-22T06:46:22;11.50;;;9.73;;
15258;SDS011;34462;51.368;12.364;2023-06-22T06:48:50;11.38;;;10.23;;
15258;SDS011;34462;51.368;12.364;2023-06-22T06:51:19;11.38;;;10.38;;
15258;SDS011;34462;51.368;12.364;2023-06-22T06:53:47;11.32;;;10.32;;
15258;SDS011;34462;51.368;12.364;2023-06-22T06:56:16;11.38;;;10.30;;
15258;SDS011;34462;51.368;12.364;2023-06-22T06:58:45;11.52;;;10.43;;
15258;SDS011;34462;51.368;12.364;2023-06-22T07:01:13;11.50;;;10.43;;
15258;SDS011;34462;51.368;12.364;2023-06-22T07:03:44;11.18;;;10.18;;
15258;SDS011;34462;51.368;12.364;2023-06-22T07:06:13;11.73;;;10.68;;
15258;SDS011;34462;51.368;12.364;2023-06-22T07:08:42;11.10;;;10.10;;
15258;SDS011;34462;51.368;12.364;2023-06-22T07:11:11;12.23;;;11.10;;
15258;SDS011;34462;51.368;12.364;2023-06-22T07:13:40;11.57;;;10.38;;
15258;SDS011;34462;51.368;12.364;2023-06-22T07:16:08;11.25;;;10.35;;
15258;SDS011;34462;51.368;12.364;2023-06-22T07:18:39;10.55;;;9.60;;
15258;SDS011;34462;51.368;12.364;2023-06-22T07:21:09;11.43;;;10.13;;
15258;SDS011;34462;51.368;12.364;2023-06-22T07:23:37;13.73;;;10.45;;
15258;SDS011;34462;51.368;12.364;2023-06-22T07:26:06;11.82;;;10.63;;
15258;SDS011;34462;51.368;12.364;2023-06-22T07:28:34;12.75;;;11.48;;
15258;SDS011;34462;51.368;12.364;2023-06-22T07:31:04;11.10;;;10.10;;
15258;SDS011;34462;51.368;12.364;2023-06-22T07:33:33;11.05;;;10.07;;
15258;SDS011;34462;51.368;12.364;2023-06-22T07:36:01;11.40;;;10.30;;
15258;SDS011;34462;51.368;12.364;2023-06-22T07:38:35;11.43;;;10.43;;
15258;SDS011;34462;51.368;12.364;2023-06-22T07:41:04;10.95;;;10.05;;
15258;SDS011;34462;51.368;12.364;2023-06-22T07:43:32;11.75;;;10.55;;
15258;SDS011;34462;51.368;12.364;2023-06-22T07:46:03;10.70;;;9.77;;
15258;SDS011;34462;51.368;12.364;2023-06-22T07:48:31;11.98;;;10.75;;
15258;SDS011;34462;51.368;12.364;2023-06-22T07:51:00;11.77;;;10.65;;
15258;SDS011;34462;51.368;12.364;2023-06-22T07:53:28;11.13;;;10.13;;
15258;SDS011;34462;51.368;12.364;2023-06-22T07:55:58;11.50;;;10.55;;
15258;SDS011;34462;51.368;12.364;2023-06-22T07:58:27;11.10;;;10.20;;
15258;SDS011;34462;51.368;12.364;2023-06-22T08:00:56;11.10;;;10.15;;
15258;SDS011;34462;51.368;12.364;2023-06-22T08:03:24;10.13;;;9.23;;
15258;SDS011;34462;51.368;12.364;2023-06-22T08:05:53;10.63;;;9.82;;
15258;SDS011;34462;51.368;12.364;2023-06-22T08:08:21;10.95;;;9.95;;
15258;SDS011;34462;51.368;12.364;2023-06-22T08:10:50;10.70;;;9.75;;
15258;SDS011;34462;51.368;12.364;2023-06-22T08:13:20;11.32;;;10.23;;
15258;SDS011;34462;51.368;12.364;2023-06-22T08:15:48;12.43;;;9.27;;
15258;SDS011;34462;51.368;12.364;2023-06-22T08:18:17;11.10;;;10.00;;
15258;SDS011;34462;51.368;12.364;2023-06-22T08:20:45;10.27;;;9.45;;
15258;SDS011;34462;51.368;12.364;2023-06-22T08:23:14;11.10;;;10.10;;
15258;SDS011;34462;51.368;12.364;2023-06-22T08:25:42;10.63;;;9.73;;
15258;SDS011;34462;51.368;12.364;2023-06-22T08:28:11;10.98;;;10.07;;
15258;SDS011;34462;51.368;12.364;2023-06-22T08:30:41;10.80;;;9.80;;
15258;SDS011;34462;51.368;12.364;2023-06-22T08:33:10;10.82;;;9.93;;
15258;SDS011;34462;51.368;12.364;2023-06-22T08:35:52;10.38;;;9.55;;
15258;SDS011;34462;51.368;12.364;2023-06-22T08:38:21;10.73;;;9.82;;
15258;SDS011;34462;51.368;12.364;2023-06-22T08:40:49;10.70;;;9.70;;
15258;SDS011;34462;51.368;12.364;2023-06-22T08:43:18;10.48;;;9.55;;
15258;SDS011;34462;51.368;12.364;2023-06-22T08:45:48;10.02;;;9.13;;
15258;SDS011;34462;51.368;12.364;2023-06-22T08:48:17;10.98;;;9.98;;
15258;SDS011;34462;51.368;12.364;2023-06-22T08:50:45;9.95;;;9.20;;
15258;SDS011;34462;51.368;12.364;2023-06-22T08:53:14;10.25;;;9.35;;
15258;SDS011;34462;51.368;12.364;2023-06-22T08:55:42;9.70;;;8.80;;
15258;SDS011;34462;51.368;12.364;2023-06-22T08:58:11;9.68;;;8.88;;
15258;SDS011;34462;51.368;12.364;2023-06-22T09:00:39;9.80;;;8.80;;
15258;SDS011;34462;51.368;12.364;2023-06-22T09:03:09;9.70;;;8.90;;
15258;SDS011;34462;51.368;12.364;2023-06-22T09:05:38;9.35;;;8.48;;
15258;SDS011;34462;51.368;12.364;2023-06-22T09:08:07;9.13;;;8.30;;
15258;SDS011;34462;51.368;12.364;2023-06-22T09:10:35;9.80;;;8.82;;
15258;SDS011;34462;51.368;12.364;2023-06-22T09:13:04;9.55;;;8.65;;
15258;SDS011;34462;51.368;12.364;2023-06-22T09:15:32;9.38;;;8.43;;
15258;SDS011;34462;51.368;12.364;2023-06-22T09:18:01;9.52;;;8.60;;
15258;SDS011;34462;51.368;12.364;2023-06-22T09:20:31;8.95;;;8.20;;
15258;SDS011;34462;51.368;12.364;2023-06-22T09:23:00;9.02;;;8.32;;
15258;SDS011;34462;51.368;12.364;2023-06-22T09:25:29;9.00;;;8.30;;
15258;SDS011;34462;51.368;12.364;2023-06-22T09:27:57;8.48;;;7.75;;
15258;SDS011;34462;51.368;12.364;2023-06-22T09:30:26;9.70;;;8.90;;
15258;SDS011;34462;51.368;12.364;2023-06-22T09:32:55;9.18;;;8.40;;
15258;SDS011;34462;51.368;12.364;2023-06-22T09:35:23;9.30;;;8.50;;
15258;SDS011;34462;51.368;12.364;2023-06-22T09:37:53;9.45;;;8.63;;
15258;SDS011;34462;51.368;12.364;2023-06-22T09:40:22;8.90;;;8.20;;
15258;SDS011;34462;51.368;12.364;2023-06-22T09:42:50;8.88;;;8.18;;
15258;SDS011;34462;51.368;12.364;2023-06-22T09:45:19;9.35;;;8.50;;
15258;SDS011;34462;51.368;12.364;2023-06-22T09:47:47;8.45;;;7.82;;
15258;SDS011;34462;51.368;12.364;2023-06-22T09:50:16;9.70;;;8.88;;
15258;SDS011;34462;51.368;12.364;2023-06-22T09:52:45;9.98;;;9.18;;
15258;SDS011;34462;51.368;12.364;2023-06-22T09:55:18;9.02;;;8.32;;
15258;SDS011;34462;51.368;12.364;2023-06-22T09:57:46;9.00;;;8.30;;
15258;SDS011;34462;51.368;12.364;2023-06-22T10:00:16;9.05;;;8.23;;
15258;SDS011;34462;51.368;12.364;2023-06-22T10:02:46;9.10;;;8.40;;
15258;SDS011;34462;51.368;12.364;2023-06-22T10:05:15;9.10;;;8.30;;
15258;SDS011;34462;51.368;12.364;2023-06-22T10:07:44;8.80;;;8.10;;
15258;SDS011;34462;51.368;12.364;2023-06-22T10:10:12;10.07;;;8.50;;
15258;SDS011;34462;51.368;12.364;2023-06-22T10:12:43;8.77;;;8.07;;
15258;SDS011;34462;51.368;12.364;2023-06-22T10:15:13;9.02;;;8.23;;
15258;SDS011;34462;51.368;12.364;2023-06-22T10:17:43;8.73;;;7.97;;
15258;SDS011;34462;51.368;12.364;2023-06-22T10:20:12;8.63;;;7.93;;
15258;SDS011;34462;51.368;12.364;2023-06-22T10:22:41;9.23;;;8.32;;
15258;SDS011;34462;51.368;12.364;2023-06-22T10:25:11;8.50;;;7.80;;
15258;SDS011;34462;51.368;12.364;2023-06-22T10:27:40;8.48;;;7.70;;
15258;SDS011;34462;51.368;12.364;2023-06-22T10:30:11;8.30;;;7.57;;
15258;SDS011;34462;51.368;12.364;2023-06-22T10:32:40;8.23;;;7.53;;
15258;SDS011;34462;51.368;12.364;2023-06-22T10:35:10;8.18;;;7.55;;
15258;SDS011;34462;51.368;12.364;2023-06-22T10:37:42;8.57;;;7.88;;
15258;SDS011;34462;51.368;12.364;2023-06-22T10:40:11;8.65;;;7.95;;
15258;SDS011;34462;51.368;12.364;2023-06-22T10:42:42;8.05;;;7.45;;
15258;SDS011;34462;51.368;12.364;2023-06-22T10:45:11;8.15;;;7.53;;
15258;SDS011;34462;51.368;12.364;2023-06-22T10:47:40;8.50;;;7.80;;
15258;SDS011;34462;51.368;12.364;2023-06-22T10:50:09;7.97;;;7.35;;
15258;SDS011;34462;51.368;12.364;2023-06-22T10:52:38;8.13;;;7.43;;
15258;SDS011;34462;51.368;12.364;2023-06-22T10:55:08;8.60;;;7.90;;
15258;SDS011;34462;51.368;12.364;2023-06-22T10:57:36;8.27;;;7.60;;
15258;SDS011;34462;51.368;12.364;2023-06-22T11:00:10;7.97;;;7.35;;
15258;SDS011;34462;51.368;12.364;2023-06-22T11:02:39;8.45;;;7.65;;
15258;SDS011;34462;51.368;12.364;2023-06-22T11:05:08;7.50;;;6.90;;
15258;SDS011;34462;51.368;12.364;2023-06-22T11:07:37;7.97;;;7.28;;
15258;SDS011;34462;51.368;12.364;2023-06-22T11:10:09;7.63;;;7.03;;
15258;SDS011;34462;51.368;12.364;2023-06-22T11:12:38;7.22;;;6.63;;
15258;SDS011;34462;51.368;12.364;2023-06-22T11:15:07;7.50;;;6.80;;
15258;SDS011;34462;51.368;12.364;2023-06-22T11:17:37;7.63;;;6.93;;
15258;SDS011;34462;51.368;12.364;2023-06-22T11:20:06;6.70;;;6.10;;
15258;SDS011;34462;51.368;12.364;2023-06-22T11:22:38;6.82;;;6.30;;
15258;SDS011;34462;51.368;12.364;2023-06-22T11:25:06;7.10;;;6.40;;
15258;SDS011;34462;51.368;12.364;2023-06-22T11:27:35;6.72;;;6.22;;
15258;SDS011;34462;51.368;12.364;2023-06-22T11:30:04;7.13;;;6.53;;
15258;SDS011;34462;51.368;12.364;2023-06-22T11:32:35;7.57;;;6.95;;
15258;SDS011;34462;51.368;12.364;2023-06-22T11:35:04;7.18;;;6.57;;
15258;SDS011;34462;51.368;12.364;2023-06-22T11:37:33;6.93;;;6.38;;
15258;SDS011;34462;51.368;12.364;2023-06-22T11:40:02;7.65;;;6.97;;
15258;SDS011;34462;51.368;12.364;2023-06-22T11:42:34;7.60;;;7.00;;
15258;SDS011;34462;51.368;12.364;2023-06-22T11:45:04;8.35;;;7.55;;
15258;SDS011;34462;51.368;12.364;2023-06-22T11:47:35;8.15;;;7.43;;
15258;SDS011;34462;51.368;12.364;2023-06-22T11:50:06;8.60;;;7.75;;
15258;SDS011;34462;51.368;12.364;2023-06-22T11:52:35;7.82;;;7.03;;
15258;SDS011;34462;51.368;12.364;2023-06-22T11:55:04;7.97;;;7.28;;
15258;SDS011;34462;51.368;12.364;2023-06-22T11:57:33;7.65;;;7.00;;
15258;SDS011;34462;51.368;12.364;2023-06-22T12:00:03;8.82;;;8.05;;
15258;SDS011;34462;51.368;12.364;2023-06-22T12:02:44;9.65;;;8.18;;
15258;SDS011;34462;51.368;12.364;2023-06-22T12:05:13;8.35;;;7.65;;
15258;SDS011;34462;51.368;12.364;2023-06-22T12:07:41;8.38;;;7.63;;
15258;SDS011;34462;51.368;12.364;2023-06-22T12:10:10;8.00;;;7.38;;
15258;SDS011;34462;51.368;12.364;2023-06-22T12:12:38;7.80;;;7.10;;
15258;SDS011;34462;51.368;12.364;2023-06-22T12:15:08;8.50;;;7.70;;
15258;SDS011;34462;51.368;12.364;2023-06-22T12:17:38;8.20;;;7.50;;
15258;SDS011;34462;51.368;12.364;2023-06-22T12:20:09;9.38;;;7.28;;
15258;SDS011;34462;51.368;12.364;2023-06-22T12:22:38;7.95;;;7.35;;
15258;SDS011;34462;51.368;12.364;2023-06-22T12:25:07;8.50;;;7.80;;
15258;SDS011;34462;51.368;12.364;2023-06-22T12:27:36;8.02;;;7.32;;
15258;SDS011;34462;51.368;12.364;2023-06-22T12:30:05;7.72;;;6.93;;
15258;SDS011;34462;51.368;12.364;2023-06-22T12:32:35;7.20;;;6.70;;
15258;SDS011;34462;51.368;12.364;2023-06-22T12:35:04;7.97;;;7.38;;
15258;SDS011;34462;51.368;12.364;2023-06-22T12:37:39;7.93;;;7.22;;
15258;SDS011;34462;51.368;12.364;2023-06-22T12:40:08;8.18;;;7.40;;
15258;SDS011;34462;51.368;12.364;2023-06-22T12:42:37;8.32;;;7.53;;
15258;SDS011;34462;51.368;12.364;2023-06-22T12:45:07;7.95;;;7.25;;
15258;SDS011;34462;51.368;12.364;2023-06-22T12:47:36;8.65;;;7.85;;
15258;SDS011;34462;51.368;12.364;2023-06-22T12:50:05;8.25;;;7.55;;
15258;SDS011;34462;51.368;12.364;2023-06-22T12:52:36;8.38;;;7.65;;
15258;SDS011;34462;51.368;12.364;2023-06-22T12:55:09;7.75;;;7.05;;
15258;SDS011;34462;51.368;12.364;2023-06-22T12:57:38;8.32;;;7.47;;
15258;SDS011;34462;51.368;12.364;2023-06-22T13:00:07;7.75;;;7.15;;
15258;SDS011;34462;51.368;12.364;2023-06-22T13:02:37;7.55;;;6.95;;
15258;SDS011;34462;51.368;12.364;2023-06-22T13:05:06;8.23;;;7.63;;
15258;SDS011;34462;51.368;12.364;2023-06-22T13:07:35;8.20;;;7.35;;
15258;SDS011;34462;51.368;12.364;2023-06-22T13:10:04;8.38;;;7.57;;
15258;SDS011;34462;51.368;12.364;2023-06-22T13:12:35;7.90;;;7.20;;
15258;SDS011;34462;51.368;12.364;2023-06-22T13:15:04;8.45;;;7.80;;
15258;SDS011;34462;51.368;12.364;2023-06-22T13:17:34;8.20;;;7.50;;
15258;SDS011;34462;51.368;12.364;2023-06-22T13:20:02;8.73;;;7.93;;
15258;SDS011;34462;51.368;12.364;2023-06-22T13:22:32;8.32;;;7.63;;
15258;SDS011;34462;51.368;12.364;2023-06-22T13:25:06;8.98;;;8.13;;
15258;SDS011;34462;51.368;12.364;2023-06-22T13:27:39;8.82;;;8.02;;
15258;SDS011;34462;51.368;12.364;2023-06-22T13:30:09;8.70;;;7.90;;
15258;SDS011;34462;51.368;12.364;2023-06-22T13:32:40;8.07;;;7.40;;
15258;SDS011;34462;51.368;12.364;2023-06-22T13:35:10;8.15;;;7.45;;
15258;SDS011;34462;51.368;12.364;2023-06-22T13:37:39;8.95;;;8.05;;
15258;SDS011;34462;51.368;12.364;2023-06-22T13:40:08;8.43;;;7.63;;
15258;SDS011;34462;51.368;12.364;2023-06-22T13:42:40;8.30;;;7.60;;
15258;SDS011;34462;51.368;12.364;2023-06-22T13:45:09;8.45;;;7.75;;
15258;SDS011;34462;51.368;12.364;2023-06-22T13:47:37;8.43;;;7.72;;
15258;SDS011;34462;51.368;12.364;2023-06-22T13:50:07;8.57;;;7.90;;
15258;SDS011;34462;51.368;12.364;2023-06-22T13:52:36;8.50;;;7.80;;
15258;SDS011;34462;51.368;12.364;2023-06-22T13:55:05;9.15;;;8.45;;
15258;SDS011;34462;51.368;12.364;2023-06-22T13:57:34;9.40;;;8.60;;
15258;SDS011;34462;51.368;12.364;2023-06-22T14:00:05;8.77;;;8.05;;
15258;SDS011;34462;51.368;12.364;2023-06-22T14:02:35;8.75;;;8.05;;
15258;SDS011;34462;51.368;12.364;2023-06-22T14:05:04;8.82;;;8.00;;
15258;SDS011;34462;51.368;12.364;2023-06-22T14:07:33;9.48;;;8.60;;
15258;SDS011;34462;51.368;12.364;2023-06-22T14:10:02;9.05;;;8.25;;
15258;SDS011;34462;51.368;12.364;2023-06-22T14:12:31;8.55;;;7.85;;
15258;SDS011;34462;51.368;12.364;2023-06-22T14:15:00;8.95;;;8.25;;
15258;SDS011;34462;51.368;12.364;2023-06-22T14:17:30;9.35;;;8.55;;
15258;SDS011;34462;51.368;12.364;2023-06-22T14:19:58;10.05;;;9.13;;
15258;SDS011;34462;51.368;12.364;2023-06-22T14:22:27;9.15;;;8.18;;
15258;SDS011;34462;51.368;12.364;2023-06-22T14:24:55;8.65;;;8.05;;
15258;SDS011;34462;51.368;12.364;2023-06-22T14:27:25;9.02;;;8.23;;
15258;SDS011;34462;51.368;12.364;2023-06-22T14:29:53;9.57;;;8.65;;
15258;SDS011;34462;51.368;12.364;2023-06-22T14:32:22;9.65;;;8.68;;